Updated23/10/2019 02:25 
 

GeoURL
free counters
Scottish Weather Network UK Weather Network Cumulus Top Weather Sites

Peebles Weather - Nearby METAR Reports

Raw Data, Raw Data Expanded

Ignore low humidity and Dew Point values. Something wrong with the sensor.
Daytime temperatures are in direct sunlight so may be higher than official air temperature values.
As with any other website, we log your IP address and browser type in the server logs for diagnostic reasons. Cookies are used to record visit time and gauges preferences. No personal information is stored or processed.

All times are in local time (GMT, or BST in summer) unless specified.

2019/10/23 00:50 EGPH 230050Z 24012KT 9999 BKN023 11/08 Q1013
10.4°C 0.0 mm 0.0 mm 0.0 mm 2.5 mph 5.4 mph 1008.7 hPa 60% X-Ray Solar Flare Level
Planetary K-Index
Planetary K-Index History
Station Warn Rain Snow Flood Wind Ltng Heat Cold Glob Moon Temp Rain 1h Rain Wed Rain 24h Wind 10m Gust Pressure Hum Proton Levels

0.465 m Waning Crescent Cool F1-NNE F: A: Kp:0 SSN:0

METAR Reports

 

EGPH - Edinburgh Airpor, United Kingdom
Distance from station: NNW 22mi, 36km
Updated: 23/10/2019 01:50
Mostly cloudy
Mostly cloudy
 Wind from WSW
Wind: WSW 14 mph , 22 km/h
Temperature: 11°C
Dew Point: 8°C
Humidity: 82%
Barometer: 1013 hPa
Clouds: Mostly cloudy
Visibility: 6 miles , 10 km
Cloud details: Mostly cloudy 701 m
2019/10/23 00:50 EGPH 230050Z 24012KT 9999 BKN023 11/08 Q1013
EGOM - Spadeadam, United Kingdom
Distance from station: SSE 49mi, 79km
Updated: 23/10/2019 01:50
Mostly cloudy
Mostly cloudy
 Wind from WSW
Wind: WSW 16 mph , 26 km/h
Temperature: 8°C
Wind Chill: 4°C
Dew Point: 7°C
Humidity: 93%
Barometer: 1014 hPa
Clouds: Mostly cloudy
Visibility: 6 miles , 10 km
Cloud details: Mostly cloudy 3353 m
2019/10/23 00:50 EGOM 230050Z AUTO 24014KT 9999 BKN110/// 08/07 Q1014
 
EGNC - Carlisle, United Kingdom
Distance from station: SSE 51mi, 82km
Updated: 21/10/2019 17:50
NOT Current
Few Clouds
Few Clouds
 Wind from W
Wind: W 5 mph , 7 km/h
Temperature: 7°C
Wind Chill: 6°C
Dew Point: 4°C
Humidity: 81%
Barometer: 1022 hPa
Clouds: Few Clouds
Visibility: 6 miles , 10 km
Cloud details: Few Clouds 1067 m
2019/10/21 16:50 EGNC 211650Z 27004KT 9999 FEW035 07/04 Q1022
EGPF - Glasgow Airport, United Kingdom
Distance from station: WNW 51mi, 82km
Updated: 23/10/2019 02:20
Mostly cloudy
Mostly cloudy
 Wind from SSW
Wind: SSW 14 mph , 22 km/h
Temperature: 11°C
Dew Point: 8°C
Humidity: 82%
Barometer: 1013 hPa
Clouds: Mostly cloudy
Visibility: 6 miles , 10 km
Cloud details: Mostly cloudy 884 m
2019/10/23 01:20 EGPF 230120Z AUTO 21012KT 9999 BKN029 11/08 Q1013
 
EGQL - Leuchars Raf, United Kingdom
Distance from station: NNE 53mi, 85km
Updated: 23/10/2019 01:50
Mostly cloudy
Mostly cloudy
 Wind from SW
Wind: SW 14 mph , 22 km/h
Temperature: 10°C
Wind Chill: 7°C
Dew Point: 7°C
Humidity: 82%
Barometer: 1012 hPa
Clouds: Mostly cloudy
Visibility: 6 miles , 10 km
Cloud details: Partly cloudy 640 m
Mostly cloudy 4267 m
2019/10/23 00:50 EGQL 230050Z 22012KT 9999 SCT021 BKN140 10/07 Q1012 WHT
EGPK - Prestwick(Civ/Na, United Kingdom
Distance from station: W 55mi, 89km
Updated: 23/10/2019 01:50
Mostly cloudy
Mostly cloudy
 Wind from S
Wind: S 13 mph , 20 km/h
Temperature: 11°C
Dew Point: 8°C
Humidity: 82%
Barometer: 1014 hPa
Clouds: Mostly cloudy
Visibility: 6 miles , 10 km
Cloud details: Few Clouds 610 m
Mostly cloudy 975 m
2019/10/23 00:50 EGPK 230050Z 19011KT 9999 FEW020 BKN032 11/08 Q1014
 
EGPN - Dundee/Riverside, United Kingdom
Distance from station: N 56mi, 90km
Updated: 22/10/2019 20:20
NOT Current
Few Clouds
Few Clouds
 Wind from WSW
Wind: WSW 18 mph , 30 km/h
Temperature: 11°C
Dew Point: 9°C
Humidity: 88%
Barometer: 1013 hPa
Clouds: Few Clouds
Visibility: 6 miles , 10 km
Cloud details: Few Clouds 762 m
2019/10/22 19:20 EGPN 221920Z 24016KT 9999 FEW025 11/09 Q1013
EGNT - Newcastle, United Kingdom
Distance from station: SE 72mi, 116km
Updated: 23/10/2019 02:20
Clear
Clear
 Wind from varies
Wind: varies 2 mph , 4 km/h
Temperature: 9°C
Dew Point: 7°C
Humidity: 87%
Barometer: 1015 hPa
Summary: Clear
Visibility: greater than 7 miles , 10 km
2019/10/23 01:20 EGNT 230120Z VRB02KT CAVOK 09/07 Q1015
 
EGNV - Tees-Side, United Kingdom
Distance from station: SE 104mi, 168km
Updated: 22/10/2019 21:50
NOT Current
Clear
Clear
 Wind from S
Wind: S 8 mph , 13 km/h
Temperature: 8°C
Wind Chill: 6°C
Dew Point: 6°C
Humidity: 87%
Barometer: 1018 hPa
Summary: Clear
Visibility: greater than 7 miles , 10 km
2019/10/22 20:50 EGNV 222050Z 18007KT CAVOK 08/06 Q1018
EGPD - Aberdeen/Dyce, United Kingdom
Distance from station: NNE 114mi, 183km
Updated: 23/10/2019 01:50
Clear
Clear
 Wind from SSE
Wind: SSE 9 mph , 15 km/h
Temperature: 9°C
Wind Chill: 7°C
Dew Point: 6°C
Humidity: 82%
Barometer: 1010 hPa
Clouds: Clear
Visibility: 6 miles , 10 km
2019/10/23 00:50 EGPD 230050Z AUTO 16008KT 9999 NCD 09/06 Q1010 NOSIG
 
EGNS - Isle Of Man/Rona, United Kingdom
Distance from station: SSW 122mi, 197km
Updated: 23/10/2019 00:50
NOT Current
Mostly cloudy
Mostly cloudy
 Wind from SW
Wind: SW 20 mph , 31 km/h
Temperature: 12°C
Dew Point: 8°C
Humidity: 77%
Barometer: 1016 hPa
Clouds: Mostly cloudy
Visibility: 6 miles , 10 km
Cloud details: Mostly cloudy 1372 m
2019/10/22 23:50 EGNS 222350Z 23017KT 9999 BKN045 12/08 Q1016
EGAC - Belfast Harbour, United Kingdom
Distance from station: WSW 128mi, 206km
Updated: 23/10/2019 02:20
Partly cloudy
Partly cloudy
 Wind from SSW
Wind: SSW 9 mph , 15 km/h
Temperature: 10°C
Wind Chill: 8°C
Dew Point: 8°C
Humidity: 88%
Barometer: 1013 hPa
Clouds: Partly cloudy
Visibility: 6 miles , 10 km
Cloud details: Partly cloudy 1250 m
2019/10/23 01:20 EGAC 230120Z AUTO 21008KT 9999 SCT041/// 10/08 Q1013
 
EGPE - Inverness/Dalcro, United Kingdom
Distance from station: NNW 134mi, 215km
Updated: 23/10/2019 02:20
Clear
Clear
 Wind from SW
Wind: SW 18 mph , 30 km/h
Temperature: 11°C
Dew Point: 8°C
Humidity: 82%
Barometer: 1008 hPa
Clouds: Clear
Visibility: 6 miles , 10 km
2019/10/23 01:20 EGPE 230120Z AUTO 22016KT 9999 NCD 11/08 Q1008
XHTML 1.1 | CSS